sensor_id;sensor_type;location;lat;lon;timestamp;P1;durP1;ratioP1;P2;durP2;ratioP2
9763;SDS011;4921;43.214;27.936;2023-02-04T00:01:52;11.37;;;9.63;;
9763;SDS011;4921;43.214;27.936;2023-02-04T00:04:18;15.37;;;10.80;;
9763;SDS011;4921;43.214;27.936;2023-02-04T00:06:46;13.73;;;10.80;;
9763;SDS011;4921;43.214;27.936;2023-02-04T00:09:12;14.03;;;11.10;;
9763;SDS011;4921;43.214;27.936;2023-02-04T00:11:42;13.70;;;10.50;;
9763;SDS011;4921;43.214;27.936;2023-02-04T00:14:10;16.37;;;11.20;;
9763;SDS011;4921;43.214;27.936;2023-02-04T00:16:37;14.07;;;10.50;;
9763;SDS011;4921;43.214;27.936;2023-02-04T00:19:03;16.37;;;11.20;;
9763;SDS011;4921;43.214;27.936;2023-02-04T00:21:30;15.77;;;11.67;;
9763;SDS011;4921;43.214;27.936;2023-02-04T00:23:57;13.93;;;11.17;;
9763;SDS011;4921;43.214;27.936;2023-02-04T00:26:24;16.40;;;11.30;;
9763;SDS011;4921;43.214;27.936;2023-02-04T00:28:52;13.90;;;10.20;;
9763;SDS011;4921;43.214;27.936;2023-02-04T00:31:19;14.47;;;10.90;;
9763;SDS011;4921;43.214;27.936;2023-02-04T00:33:46;14.87;;;10.33;;
9763;SDS011;4921;43.214;27.936;2023-02-04T00:36:13;16.23;;;11.13;;
9763;SDS011;4921;43.214;27.936;2023-02-04T00:38:40;15.07;;;11.33;;
9763;SDS011;4921;43.214;27.936;2023-02-04T00:41:07;16.77;;;10.87;;
9763;SDS011;4921;43.214;27.936;2023-02-04T00:43:34;12.93;;;9.80;;
9763;SDS011;4921;43.214;27.936;2023-02-04T00:46:02;15.80;;;10.57;;
9763;SDS011;4921;43.214;27.936;2023-02-04T00:48:29;11.70;;;9.47;;
9763;SDS011;4921;43.214;27.936;2023-02-04T00:50:56;15.07;;;9.53;;
9763;SDS011;4921;43.214;27.936;2023-02-04T00:53:23;15.77;;;9.60;;
9763;SDS011;4921;43.214;27.936;2023-02-04T00:55:50;13.87;;;9.50;;
9763;SDS011;4921;43.214;27.936;2023-02-04T00:58:17;15.00;;;9.80;;
9763;SDS011;4921;43.214;27.936;2023-02-04T01:00:44;13.50;;;10.33;;
9763;SDS011;4921;43.214;27.936;2023-02-04T01:03:12;14.17;;;9.70;;
9763;SDS011;4921;43.214;27.936;2023-02-04T01:05:39;12.87;;;8.87;;
9763;SDS011;4921;43.214;27.936;2023-02-04T01:08:06;10.80;;;8.33;;
9763;SDS011;4921;43.214;27.936;2023-02-04T01:10:33;11.07;;;8.63;;
9763;SDS011;4921;43.214;27.936;2023-02-04T01:13:00;13.60;;;8.30;;
9763;SDS011;4921;43.214;27.936;2023-02-04T01:15:27;9.63;;;7.37;;
9763;SDS011;4921;43.214;27.936;2023-02-04T01:17:54;12.17;;;7.83;;
9763;SDS011;4921;43.214;27.936;2023-02-04T01:20:22;10.87;;;7.17;;
9763;SDS011;4921;43.214;27.936;2023-02-04T01:22:49;10.10;;;7.47;;
9763;SDS011;4921;43.214;27.936;2023-02-04T01:25:16;11.73;;;7.60;;
9763;SDS011;4921;43.214;27.936;2023-02-04T01:27:43;8.27;;;6.70;;
9763;SDS011;4921;43.214;27.936;2023-02-04T01:30:12;9.23;;;7.23;;
9763;SDS011;4921;43.214;27.936;2023-02-04T01:32:40;10.50;;;7.03;;
9763;SDS011;4921;43.214;27.936;2023-02-04T01:35:07;8.53;;;6.07;;
9763;SDS011;4921;43.214;27.936;2023-02-04T01:37:36;6.17;;;5.57;;
9763;SDS011;4921;43.214;27.936;2023-02-04T01:40:03;8.90;;;6.17;;
9763;SDS011;4921;43.214;27.936;2023-02-04T01:42:31;6.63;;;5.70;;
9763;SDS011;4921;43.214;27.936;2023-02-04T01:44:58;6.63;;;5.53;;
9763;SDS011;4921;43.214;27.936;2023-02-04T01:47:25;7.30;;;5.57;;
9763;SDS011;4921;43.214;27.936;2023-02-04T01:49:52;5.23;;;4.27;;
9763;SDS011;4921;43.214;27.936;2023-02-04T01:52:20;6.07;;;5.27;;
9763;SDS011;4921;43.214;27.936;2023-02-04T01:54:49;7.60;;;4.73;;
9763;SDS011;4921;43.214;27.936;2023-02-04T01:57:18;5.00;;;4.53;;
9763;SDS011;4921;43.214;27.936;2023-02-04T01:59:45;6.17;;;5.07;;
9763;SDS011;4921;43.214;27.936;2023-02-04T02:05:10;5.27;;;4.77;;
9763;SDS011;4921;43.214;27.936;2023-02-04T02:07:39;7.87;;;4.77;;
9763;SDS011;4921;43.214;27.936;2023-02-04T02:10:08;7.30;;;4.93;;
9763;SDS011;4921;43.214;27.936;2023-02-04T02:12:37;7.10;;;5.33;;
9763;SDS011;4921;43.214;27.936;2023-02-04T02:15:04;7.17;;;5.00;;
9763;SDS011;4921;43.214;27.936;2023-02-04T02:17:32;6.83;;;5.30;;
9763;SDS011;4921;43.214;27.936;2023-02-04T02:19:59;8.73;;;5.10;;
9763;SDS011;4921;43.214;27.936;2023-02-04T02:22:27;7.77;;;5.00;;
9763;SDS011;4921;43.214;27.936;2023-02-04T02:25:00;6.10;;;5.10;;
9763;SDS011;4921;43.214;27.936;2023-02-04T02:27:27;8.43;;;5.30;;
9763;SDS011;4921;43.214;27.936;2023-02-04T02:29:54;6.00;;;5.23;;
9763;SDS011;4921;43.214;27.936;2023-02-04T02:32:21;8.10;;;5.40;;
9763;SDS011;4921;43.214;27.936;2023-02-04T02:34:48;6.83;;;5.30;;
9763;SDS011;4921;43.214;27.936;2023-02-04T02:37:15;8.93;;;6.10;;
9763;SDS011;4921;43.214;27.936;2023-02-04T02:39:42;6.27;;;5.30;;
9763;SDS011;4921;43.214;27.936;2023-02-04T02:42:12;6.87;;;5.70;;
9763;SDS011;4921;43.214;27.936;2023-02-04T02:44:42;10.33;;;5.57;;
9763;SDS011;4921;43.214;27.936;2023-02-04T02:47:11;8.97;;;6.03;;
9763;SDS011;4921;43.214;27.936;2023-02-04T02:49:40;6.97;;;6.30;;
9763;SDS011;4921;43.214;27.936;2023-02-04T02:52:09;8.30;;;6.17;;
9763;SDS011;4921;43.214;27.936;2023-02-04T02:54:37;9.97;;;6.73;;
9763;SDS011;4921;43.214;27.936;2023-02-04T02:57:09;7.30;;;6.17;;
9763;SDS011;4921;43.214;27.936;2023-02-04T02:59:39;10.03;;;7.43;;
9763;SDS011;4921;43.214;27.936;2023-02-04T03:02:06;8.93;;;6.87;;
9763;SDS011;4921;43.214;27.936;2023-02-04T03:04:36;10.50;;;6.73;;
9763;SDS011;4921;43.214;27.936;2023-02-04T03:07:06;7.03;;;6.33;;
9763;SDS011;4921;43.214;27.936;2023-02-04T03:09:34;8.37;;;7.30;;
9763;SDS011;4921;43.214;27.936;2023-02-04T03:12:02;9.77;;;6.93;;
9763;SDS011;4921;43.214;27.936;2023-02-04T03:14:31;9.50;;;6.60;;
9763;SDS011;4921;43.214;27.936;2023-02-04T03:17:00;9.23;;;6.80;;
9763;SDS011;4921;43.214;27.936;2023-02-04T03:19:29;10.17;;;7.43;;
9763;SDS011;4921;43.214;27.936;2023-02-04T03:21:57;10.17;;;6.93;;
9763;SDS011;4921;43.214;27.936;2023-02-04T03:24:25;7.33;;;6.53;;
9763;SDS011;4921;43.214;27.936;2023-02-04T03:26:52;6.67;;;6.03;;
9763;SDS011;4921;43.214;27.936;2023-02-04T03:29:19;6.87;;;6.00;;
9763;SDS011;4921;43.214;27.936;2023-02-04T03:31:46;6.77;;;5.67;;
9763;SDS011;4921;43.214;27.936;2023-02-04T03:34:14;6.53;;;5.73;;
9763;SDS011;4921;43.214;27.936;2023-02-04T03:36:41;8.30;;;5.87;;
9763;SDS011;4921;43.214;27.936;2023-02-04T03:39:08;8.17;;;5.53;;
9763;SDS011;4921;43.214;27.936;2023-02-04T03:41:35;7.63;;;5.30;;
9763;SDS011;4921;43.214;27.936;2023-02-04T03:44:02;8.73;;;5.67;;
9763;SDS011;4921;43.214;27.936;2023-02-04T03:46:30;6.70;;;5.67;;
9763;SDS011;4921;43.214;27.936;2023-02-04T03:48:57;7.37;;;5.90;;
9763;SDS011;4921;43.214;27.936;2023-02-04T03:51:25;6.47;;;5.87;;
9763;SDS011;4921;43.214;27.936;2023-02-04T03:53:52;5.87;;;5.30;;
9763;SDS011;4921;43.214;27.936;2023-02-04T03:56:19;6.70;;;5.77;;
9763;SDS011;4921;43.214;27.936;2023-02-04T03:58:46;6.83;;;6.00;;
9763;SDS011;4921;43.214;27.936;2023-02-04T04:01:13;6.83;;;6.13;;
9763;SDS011;4921;43.214;27.936;2023-02-04T04:03:39;7.03;;;5.90;;
9763;SDS011;4921;43.214;27.936;2023-02-04T04:06:06;11.23;;;6.73;;
9763;SDS011;4921;43.214;27.936;2023-02-04T04:08:36;6.90;;;6.30;;
9763;SDS011;4921;43.214;27.936;2023-02-04T04:11:04;6.70;;;5.50;;
9763;SDS011;4921;43.214;27.936;2023-02-04T04:13:31;5.97;;;5.37;;
9763;SDS011;4921;43.214;27.936;2023-02-04T04:15:58;10.17;;;5.90;;
9763;SDS011;4921;43.214;27.936;2023-02-04T04:18:25;5.90;;;5.33;;
9763;SDS011;4921;43.214;27.936;2023-02-04T04:20:52;6.47;;;5.80;;
9763;SDS011;4921;43.214;27.936;2023-02-04T04:23:19;6.17;;;5.57;;
9763;SDS011;4921;43.214;27.936;2023-02-04T04:25:47;5.93;;;5.33;;
9763;SDS011;4921;43.214;27.936;2023-02-04T04:28:14;6.70;;;5.50;;
9763;SDS011;4921;43.214;27.936;2023-02-04T04:30:41;7.13;;;5.43;;
9763;SDS011;4921;43.214;27.936;2023-02-04T04:33:08;5.87;;;5.37;;
9763;SDS011;4921;43.214;27.936;2023-02-04T04:35:35;6.83;;;5.47;;
9763;SDS011;4921;43.214;27.936;2023-02-04T04:38:02;5.97;;;5.37;;
9763;SDS011;4921;43.214;27.936;2023-02-04T04:40:29;6.63;;;5.73;;
9763;SDS011;4921;43.214;27.936;2023-02-04T04:42:57;6.00;;;5.40;;
9763;SDS011;4921;43.214;27.936;2023-02-04T04:45:24;6.17;;;5.57;;
9763;SDS011;4921;43.214;27.936;2023-02-04T04:47:51;5.97;;;5.47;;
9763;SDS011;4921;43.214;27.936;2023-02-04T04:50:18;6.43;;;5.83;;
9763;SDS011;4921;43.214;27.936;2023-02-04T04:52:45;7.10;;;6.40;;
9763;SDS011;4921;43.214;27.936;2023-02-04T04:55:12;7.13;;;6.07;;
9763;SDS011;4921;43.214;27.936;2023-02-04T04:57:39;6.70;;;5.90;;
9763;SDS011;4921;43.214;27.936;2023-02-04T05:00:09;6.80;;;5.30;;
9763;SDS011;4921;43.214;27.936;2023-02-04T05:02:41;6.80;;;6.10;;
9763;SDS011;4921;43.214;27.936;2023-02-04T05:05:08;6.37;;;5.77;;
9763;SDS011;4921;43.214;27.936;2023-02-04T05:07:36;6.80;;;6.17;;
9763;SDS011;4921;43.214;27.936;2023-02-04T05:10:03;6.23;;;5.60;;
9763;SDS011;4921;43.214;27.936;2023-02-04T05:12:31;5.47;;;4.97;;
9763;SDS011;4921;43.214;27.936;2023-02-04T05:14:58;6.57;;;5.97;;
9763;SDS011;4921;43.214;27.936;2023-02-04T05:17:26;6.50;;;5.80;;
9763;SDS011;4921;43.214;27.936;2023-02-04T05:19:53;5.57;;;5.07;;
9763;SDS011;4921;43.214;27.936;2023-02-04T05:22:20;6.03;;;5.47;;
9763;SDS011;4921;43.214;27.936;2023-02-04T05:24:47;5.70;;;5.20;;
9763;SDS011;4921;43.214;27.936;2023-02-04T05:27:14;5.97;;;5.43;;
9763;SDS011;4921;43.214;27.936;2023-02-04T05:29:41;6.27;;;5.63;;
9763;SDS011;4921;43.214;27.936;2023-02-04T05:32:08;7.00;;;6.30;;
9763;SDS011;4921;43.214;27.936;2023-02-04T05:34:36;7.53;;;5.90;;
9763;SDS011;4921;43.214;27.936;2023-02-04T05:37:04;6.03;;;5.53;;
9763;SDS011;4921;43.214;27.936;2023-02-04T05:39:31;6.43;;;5.40;;
9763;SDS011;4921;43.214;27.936;2023-02-04T05:41:58;6.07;;;5.30;;
9763;SDS011;4921;43.214;27.936;2023-02-04T05:44:25;6.87;;;5.93;;
9763;SDS011;4921;43.214;27.936;2023-02-04T05:46:51;7.70;;;5.83;;
9763;SDS011;4921;43.214;27.936;2023-02-04T05:49:18;6.23;;;5.57;;
9763;SDS011;4921;43.214;27.936;2023-02-04T05:51:47;6.67;;;5.67;;
9763;SDS011;4921;43.214;27.936;2023-02-04T05:54:14;5.17;;;4.67;;
9763;SDS011;4921;43.214;27.936;2023-02-04T05:56:43;5.90;;;5.40;;
9763;SDS011;4921;43.214;27.936;2023-02-04T05:59:11;5.97;;;5.37;;
9763;SDS011;4921;43.214;27.936;2023-02-04T06:01:38;7.00;;;6.00;;
9763;SDS011;4921;43.214;27.936;2023-02-04T06:04:05;6.27;;;5.67;;
9763;SDS011;4921;43.214;27.936;2023-02-04T06:06:32;6.67;;;5.57;;
9763;SDS011;4921;43.214;27.936;2023-02-04T06:09:01;11.33;;;5.57;;
9763;SDS011;4921;43.214;27.936;2023-02-04T06:11:28;7.60;;;6.17;;
9763;SDS011;4921;43.214;27.936;2023-02-04T06:13:55;6.23;;;5.73;;
9763;SDS011;4921;43.214;27.936;2023-02-04T06:16:21;7.23;;;6.00;;
9763;SDS011;4921;43.214;27.936;2023-02-04T06:18:48;6.77;;;5.90;;
9763;SDS011;4921;43.214;27.936;2023-02-04T06:21:15;6.47;;;5.83;;
9763;SDS011;4921;43.214;27.936;2023-02-04T06:23:42;8.27;;;6.47;;
9763;SDS011;4921;43.214;27.936;2023-02-04T06:26:11;6.90;;;6.20;;
9763;SDS011;4921;43.214;27.936;2023-02-04T06:28:37;7.73;;;6.20;;
9763;SDS011;4921;43.214;27.936;2023-02-04T06:31:04;6.40;;;5.80;;
9763;SDS011;4921;43.214;27.936;2023-02-04T06:33:33;8.97;;;6.33;;
9763;SDS011;4921;43.214;27.936;2023-02-04T06:36:01;7.07;;;6.43;;
9763;SDS011;4921;43.214;27.936;2023-02-04T06:38:28;7.73;;;6.80;;
9763;SDS011;4921;43.214;27.936;2023-02-04T06:40:55;7.33;;;6.63;;
9763;SDS011;4921;43.214;27.936;2023-02-04T06:43:23;7.23;;;6.13;;
9763;SDS011;4921;43.214;27.936;2023-02-04T06:45:51;6.63;;;6.03;;
9763;SDS011;4921;43.214;27.936;2023-02-04T06:48:18;7.97;;;6.90;;
9763;SDS011;4921;43.214;27.936;2023-02-04T06:50:45;6.60;;;6.00;;
9763;SDS011;4921;43.214;27.936;2023-02-04T06:53:12;7.60;;;6.80;;
9763;SDS011;4921;43.214;27.936;2023-02-04T06:55:39;7.90;;;6.70;;
9763;SDS011;4921;43.214;27.936;2023-02-04T06:58:06;8.10;;;6.87;;
9763;SDS011;4921;43.214;27.936;2023-02-04T07:00:35;8.80;;;7.57;;
9763;SDS011;4921;43.214;27.936;2023-02-04T07:03:02;8.57;;;7.40;;
9763;SDS011;4921;43.214;27.936;2023-02-04T07:05:31;9.17;;;8.07;;
9763;SDS011;4921;43.214;27.936;2023-02-04T07:07:58;11.80;;;8.97;;
9763;SDS011;4921;43.214;27.936;2023-02-04T07:10:25;11.83;;;9.37;;
9763;SDS011;4921;43.214;27.936;2023-02-04T07:12:52;9.60;;;8.60;;
9763;SDS011;4921;43.214;27.936;2023-02-04T07:15:19;13.80;;;10.03;;
9763;SDS011;4921;43.214;27.936;2023-02-04T07:17:47;15.53;;;10.70;;
9763;SDS011;4921;43.214;27.936;2023-02-04T07:20:14;12.83;;;10.13;;
9763;SDS011;4921;43.214;27.936;2023-02-04T07:22:42;14.13;;;10.50;;
9763;SDS011;4921;43.214;27.936;2023-02-04T07:25:09;13.00;;;10.07;;
9763;SDS011;4921;43.214;27.936;2023-02-04T07:27:39;13.60;;;10.27;;
9763;SDS011;4921;43.214;27.936;2023-02-04T07:30:06;13.33;;;10.33;;
9763;SDS011;4921;43.214;27.936;2023-02-04T07:32:34;12.20;;;9.93;;
9763;SDS011;4921;43.214;27.936;2023-02-04T07:35:03;13.97;;;11.27;;
9763;SDS011;4921;43.214;27.936;2023-02-04T07:37:30;13.33;;;11.40;;
9763;SDS011;4921;43.214;27.936;2023-02-04T07:39:57;10.93;;;9.83;;
9763;SDS011;4921;43.214;27.936;2023-02-04T07:42:24;12.37;;;10.30;;
9763;SDS011;4921;43.214;27.936;2023-02-04T07:44:51;10.57;;;9.53;;
9763;SDS011;4921;43.214;27.936;2023-02-04T07:47:18;11.83;;;9.13;;
9763;SDS011;4921;43.214;27.936;2023-02-04T07:49:45;10.07;;;9.00;;
9763;SDS011;4921;43.214;27.936;2023-02-04T07:52:14;10.40;;;8.40;;
9763;SDS011;4921;43.214;27.936;2023-02-04T07:54:41;10.33;;;9.23;;
9763;SDS011;4921;43.214;27.936;2023-02-04T07:57:08;6.80;;;5.60;;
9763;SDS011;4921;43.214;27.936;2023-02-04T07:59:35;11.93;;;8.17;;
9763;SDS011;4921;43.214;27.936;2023-02-04T08:02:02;13.00;;;10.87;;
9763;SDS011;4921;43.214;27.936;2023-02-04T08:04:29;11.73;;;10.50;;
9763;SDS011;4921;43.214;27.936;2023-02-04T08:06:56;10.67;;;9.57;;
9763;SDS011;4921;43.214;27.936;2023-02-04T08:09:24;11.00;;;9.63;;
9763;SDS011;4921;43.214;27.936;2023-02-04T08:11:51;10.87;;;9.30;;
9763;SDS011;4921;43.214;27.936;2023-02-04T08:14:19;11.43;;;9.47;;
9763;SDS011;4921;43.214;27.936;2023-02-04T08:16:45;11.20;;;9.27;;
9763;SDS011;4921;43.214;27.936;2023-02-04T08:19:12;9.83;;;8.70;;
9763;SDS011;4921;43.214;27.936;2023-02-04T08:21:43;12.27;;;8.37;;
9763;SDS011;4921;43.214;27.936;2023-02-04T08:24:10;10.43;;;7.87;;
9763;SDS011;4921;43.214;27.936;2023-02-04T08:26:38;9.60;;;8.20;;
9763;SDS011;4921;43.214;27.936;2023-02-04T08:29:09;9.53;;;8.10;;
9763;SDS011;4921;43.214;27.936;2023-02-04T08:31:36;8.27;;;7.47;;
9763;SDS011;4921;43.214;27.936;2023-02-04T08:34:03;8.87;;;7.97;;
9763;SDS011;4921;43.214;27.936;2023-02-04T08:36:31;8.30;;;7.50;;
9763;SDS011;4921;43.214;27.936;2023-02-04T08:38:58;9.43;;;7.40;;
9763;SDS011;4921;43.214;27.936;2023-02-04T08:41:25;9.63;;;8.63;;
9763;SDS011;4921;43.214;27.936;2023-02-04T08:43:54;9.23;;;8.33;;
9763;SDS011;4921;43.214;27.936;2023-02-04T08:46:21;9.67;;;8.13;;
9763;SDS011;4921;43.214;27.936;2023-02-04T08:48:48;9.73;;;8.50;;
9763;SDS011;4921;43.214;27.936;2023-02-04T08:51:15;9.60;;;8.20;;
9763;SDS011;4921;43.214;27.936;2023-02-04T08:53:42;8.90;;;8.10;;
9763;SDS011;4921;43.214;27.936;2023-02-04T08:56:09;11.17;;;8.67;;
9763;SDS011;4921;43.214;27.936;2023-02-04T08:58:40;10.43;;;8.87;;
9763;SDS011;4921;43.214;27.936;2023-02-04T09:01:09;10.77;;;9.30;;
9763;SDS011;4921;43.214;27.936;2023-02-04T09:03:36;12.43;;;10.07;;
9763;SDS011;4921;43.214;27.936;2023-02-04T09:06:03;15.03;;;10.20;;
9763;SDS011;4921;43.214;27.936;2023-02-04T09:08:31;12.70;;;9.77;;
9763;SDS011;4921;43.214;27.936;2023-02-04T09:10:58;13.87;;;9.97;;
9763;SDS011;4921;43.214;27.936;2023-02-04T09:13:26;11.50;;;10.07;;
9763;SDS011;4921;43.214;27.936;2023-02-04T09:15:53;11.83;;;10.17;;
9763;SDS011;4921;43.214;27.936;2023-02-04T09:18:21;13.43;;;10.30;;
9763;SDS011;4921;43.214;27.936;2023-02-04T09:20:50;11.97;;;10.23;;
9763;SDS011;4921;43.214;27.936;2023-02-04T09:23:18;17.83;;;9.87;;
9763;SDS011;4921;43.214;27.936;2023-02-04T09:25:45;12.67;;;9.47;;
9763;SDS011;4921;43.214;27.936;2023-02-04T09:28:13;10.83;;;9.20;;
9763;SDS011;4921;43.214;27.936;2023-02-04T09:30:41;11.10;;;8.70;;
9763;SDS011;4921;43.214;27.936;2023-02-04T09:33:10;10.00;;;8.30;;
9763;SDS011;4921;43.214;27.936;2023-02-04T09:35:39;9.60;;;8.60;;
9763;SDS011;4921;43.214;27.936;2023-02-04T09:38:06;11.80;;;9.33;;
9763;SDS011;4921;43.214;27.936;2023-02-04T09:40:33;11.67;;;8.97;;
9763;SDS011;4921;43.214;27.936;2023-02-04T09:43:03;12.73;;;9.90;;
9763;SDS011;4921;43.214;27.936;2023-02-04T09:45:32;10.07;;;9.07;;
9763;SDS011;4921;43.214;27.936;2023-02-04T09:48:01;11.97;;;9.40;;
9763;SDS011;4921;43.214;27.936;2023-02-04T09:50:30;10.07;;;9.10;;
9763;SDS011;4921;43.214;27.936;2023-02-04T09:53:00;10.03;;;7.93;;
9763;SDS011;4921;43.214;27.936;2023-02-04T09:55:31;8.20;;;7.40;;
9763;SDS011;4921;43.214;27.936;2023-02-04T09:58:00;8.63;;;7.83;;
9763;SDS011;4921;43.214;27.936;2023-02-04T10:00:28;9.67;;;7.70;;
9763;SDS011;4921;43.214;27.936;2023-02-04T10:02:56;8.60;;;7.27;;
9763;SDS011;4921;43.214;27.936;2023-02-04T10:05:26;8.17;;;6.70;;
9763;SDS011;4921;43.214;27.936;2023-02-04T10:07:55;13.13;;;8.60;;
9763;SDS011;4921;43.214;27.936;2023-02-04T10:10:24;14.77;;;9.83;;
9763;SDS011;4921;43.214;27.936;2023-02-04T10:12:54;9.60;;;8.67;;
9763;SDS011;4921;43.214;27.936;2023-02-04T10:15:22;9.63;;;8.70;;
9763;SDS011;4921;43.214;27.936;2023-02-04T10:17:50;9.33;;;8.50;;
9763;SDS011;4921;43.214;27.936;2023-02-04T10:20:20;8.33;;;7.53;;
9763;SDS011;4921;43.214;27.936;2023-02-04T10:22:49;7.73;;;6.90;;
9763;SDS011;4921;43.214;27.936;2023-02-04T10:25:19;6.87;;;6.17;;
9763;SDS011;4921;43.214;27.936;2023-02-04T10:27:50;7.00;;;6.33;;
9763;SDS011;4921;43.214;27.936;2023-02-04T10:30:19;7.20;;;6.50;;
9763;SDS011;4921;43.214;27.936;2023-02-04T10:32:47;7.77;;;6.40;;
9763;SDS011;4921;43.214;27.936;2023-02-04T10:35:14;7.07;;;6.40;;
9763;SDS011;4921;43.214;27.936;2023-02-04T10:37:43;7.30;;;6.60;;
9763;SDS011;4921;43.214;27.936;2023-02-04T10:40:24;7.70;;;6.00;;
9763;SDS011;4921;43.214;27.936;2023-02-04T10:42:55;7.20;;;6.53;;
9763;SDS011;4921;43.214;27.936;2023-02-04T10:45:22;6.80;;;6.20;;
9763;SDS011;4921;43.214;27.936;2023-02-04T10:47:51;8.50;;;6.47;;
9763;SDS011;4921;43.214;27.936;2023-02-04T10:50:20;7.93;;;7.13;;
9763;SDS011;4921;43.214;27.936;2023-02-04T10:52:50;8.87;;;6.27;;
9763;SDS011;4921;43.214;27.936;2023-02-04T10:55:20;7.97;;;6.03;;
9763;SDS011;4921;43.214;27.936;2023-02-04T10:57:50;47.57;;;9.10;;
9763;SDS011;4921;43.214;27.936;2023-02-04T11:00:20;7.10;;;6.50;;
9763;SDS011;4921;43.214;27.936;2023-02-04T11:02:52;7.13;;;6.43;;
9763;SDS011;4921;43.214;27.936;2023-02-04T11:08:22;7.47;;;6.80;;
9763;SDS011;4921;43.214;27.936;2023-02-04T11:10:59;8.17;;;7.37;;
9763;SDS011;4921;43.214;27.936;2023-02-04T11:13:38;8.10;;;7.30;;
9763;SDS011;4921;43.214;27.936;2023-02-04T11:16:08;9.07;;;7.43;;
9763;SDS011;4921;43.214;27.936;2023-02-04T11:18:45;8.67;;;7.73;;
9763;SDS011;4921;43.214;27.936;2023-02-04T11:21:20;9.07;;;6.87;;
9763;SDS011;4921;43.214;27.936;2023-02-04T11:23:49;8.60;;;7.60;;
9763;SDS011;4921;43.214;27.936;2023-02-04T11:26:16;8.27;;;7.33;;
9763;SDS011;4921;43.214;27.936;2023-02-04T11:28:48;8.10;;;7.30;;
9763;SDS011;4921;43.214;27.936;2023-02-04T11:31:28;8.33;;;7.53;;
9763;SDS011;4921;43.214;27.936;2023-02-04T11:34:07;9.70;;;8.03;;
9763;SDS011;4921;43.214;27.936;2023-02-04T11:36:49;8.87;;;7.97;;
9763;SDS011;4921;43.214;27.936;2023-02-04T11:39:20;9.37;;;7.63;;
9763;SDS011;4921;43.214;27.936;2023-02-04T11:41:48;8.30;;;7.50;;
9763;SDS011;4921;43.214;27.936;2023-02-04T11:44:15;8.77;;;7.87;;
9763;SDS011;4921;43.214;27.936;2023-02-04T11:46:49;8.97;;;7.13;;
9763;SDS011;4921;43.214;27.936;2023-02-04T11:49:19;9.77;;;8.10;;
9763;SDS011;4921;43.214;27.936;2023-02-04T11:51:49;9.90;;;7.90;;
9763;SDS011;4921;43.214;27.936;2023-02-04T11:54:16;8.67;;;7.77;;
9763;SDS011;4921;43.214;27.936;2023-02-04T11:56:44;9.73;;;8.43;;
9763;SDS011;4921;43.214;27.936;2023-02-04T11:59:12;10.87;;;8.40;;
9763;SDS011;4921;43.214;27.936;2023-02-04T12:01:41;9.97;;;8.30;;
9763;SDS011;4921;43.214;27.936;2023-02-04T12:04:20;11.90;;;9.30;;
9763;SDS011;4921;43.214;27.936;2023-02-04T12:06:55;9.40;;;8.40;;
9763;SDS011;4921;43.214;27.936;2023-02-04T12:09:24;13.70;;;9.50;;
9763;SDS011;4921;43.214;27.936;2023-02-04T12:11:55;9.93;;;8.90;;
9763;SDS011;4921;43.214;27.936;2023-02-04T12:14:27;9.80;;;8.90;;
9763;SDS011;4921;43.214;27.936;2023-02-04T12:16:57;9.77;;;8.03;;
9763;SDS011;4921;43.214;27.936;2023-02-04T12:19:26;10.93;;;8.47;;
9763;SDS011;4921;43.214;27.936;2023-02-04T12:21:53;16.07;;;7.33;;
9763;SDS011;4921;43.214;27.936;2023-02-04T12:24:20;10.00;;;7.87;;
9763;SDS011;4921;43.214;27.936;2023-02-04T12:26:46;8.90;;;8.03;;
9763;SDS011;4921;43.214;27.936;2023-02-04T12:29:13;13.47;;;8.63;;
9763;SDS011;4921;43.214;27.936;2023-02-04T12:31:40;12.70;;;8.73;;
9763;SDS011;4921;43.214;27.936;2023-02-04T12:34:07;8.93;;;8.03;;
9763;SDS011;4921;43.214;27.936;2023-02-04T12:36:36;10.30;;;8.10;;
9763;SDS011;4921;43.214;27.936;2023-02-04T12:39:02;11.83;;;9.40;;
9763;SDS011;4921;43.214;27.936;2023-02-04T12:41:29;10.87;;;8.97;;
9763;SDS011;4921;43.214;27.936;2023-02-04T12:43:56;10.83;;;8.60;;
9763;SDS011;4921;43.214;27.936;2023-02-04T12:46:25;9.30;;;8.27;;
9763;SDS011;4921;43.214;27.936;2023-02-04T12:48:52;9.67;;;8.67;;
9763;SDS011;4921;43.214;27.936;2023-02-04T12:51:19;12.13;;;8.70;;
9763;SDS011;4921;43.214;27.936;2023-02-04T12:53:48;9.47;;;8.43;;
9763;SDS011;4921;43.214;27.936;2023-02-04T12:56:15;9.63;;;8.73;;
9763;SDS011;4921;43.214;27.936;2023-02-04T12:58:44;11.30;;;9.13;;
9763;SDS011;4921;43.214;27.936;2023-02-04T13:01:11;13.47;;;9.43;;
9763;SDS011;4921;43.214;27.936;2023-02-04T13:03:38;13.90;;;10.03;;
9763;SDS011;4921;43.214;27.936;2023-02-04T13:06:05;13.03;;;10.03;;
9763;SDS011;4921;43.214;27.936;2023-02-04T13:08:32;12.93;;;10.40;;
9763;SDS011;4921;43.214;27.936;2023-02-04T13:11:00;10.27;;;9.13;;
9763;SDS011;4921;43.214;27.936;2023-02-04T13:13:27;9.50;;;8.23;;
9763;SDS011;4921;43.214;27.936;2023-02-04T13:15:54;12.60;;;9.77;;
9763;SDS011;4921;43.214;27.936;2023-02-04T13:18:21;12.40;;;8.90;;
9763;SDS011;4921;43.214;27.936;2023-02-04T13:20:48;9.47;;;8.43;;
9763;SDS011;4921;43.214;27.936;2023-02-04T13:23:15;8.57;;;6.40;;
9763;SDS011;4921;43.214;27.936;2023-02-04T13:25:42;8.00;;;7.20;;
9763;SDS011;4921;43.214;27.936;2023-02-04T13:28:11;5.40;;;4.90;;
9763;SDS011;4921;43.214;27.936;2023-02-04T13:30:38;5.20;;;4.70;;
9763;SDS011;4921;43.214;27.936;2023-02-04T13:33:05;4.90;;;4.50;;
9763;SDS011;4921;43.214;27.936;2023-02-04T13:35:49;5.10;;;4.60;;
9763;SDS011;4921;43.214;27.936;2023-02-04T13:38:16;6.13;;;5.57;;
9763;SDS011;4921;43.214;27.936;2023-02-04T13:40:43;5.97;;;5.47;;
9763;SDS011;4921;43.214;27.936;2023-02-04T13:43:09;6.53;;;5.80;;
9763;SDS011;4921;43.214;27.936;2023-02-04T13:45:37;6.33;;;5.37;;
9763;SDS011;4921;43.214;27.936;2023-02-04T13:48:04;5.63;;;5.10;;
9763;SDS011;4921;43.214;27.936;2023-02-04T13:50:31;6.00;;;5.50;;
9763;SDS011;4921;43.214;27.936;2023-02-04T13:52:59;5.70;;;5.20;;
9763;SDS011;4921;43.214;27.936;2023-02-04T13:55:26;6.37;;;5.77;;
9763;SDS011;4921;43.214;27.936;2023-02-04T13:57:53;5.87;;;5.03;;
9763;SDS011;4921;43.214;27.936;2023-02-04T14:00:20;6.30;;;5.73;;
9763;SDS011;4921;43.214;27.936;2023-02-04T14:02:47;6.20;;;5.70;;
9763;SDS011;4921;43.214;27.936;2023-02-04T14:05:14;7.40;;;6.30;;
9763;SDS011;4921;43.214;27.936;2023-02-04T14:07:42;6.67;;;5.97;;
9763;SDS011;4921;43.214;27.936;2023-02-04T14:10:10;6.77;;;6.17;;
9763;SDS011;4921;43.214;27.936;2023-02-04T14:12:37;7.77;;;7.03;;
9763;SDS011;4921;43.214;27.936;2023-02-04T14:15:06;7.43;;;6.03;;
9763;SDS011;4921;43.214;27.936;2023-02-04T14:17:33;7.60;;;6.83;;
9763;SDS011;4921;43.214;27.936;2023-02-04T14:20:00;7.67;;;6.90;;
9763;SDS011;4921;43.214;27.936;2023-02-04T14:22:29;7.80;;;6.97;;
9763;SDS011;4921;43.214;27.936;2023-02-04T14:24:56;8.43;;;6.90;;
9763;SDS011;4921;43.214;27.936;2023-02-04T14:27:25;8.37;;;7.57;;
9763;SDS011;4921;43.214;27.936;2023-02-04T14:29:52;8.13;;;7.33;;
9763;SDS011;4921;43.214;27.936;2023-02-04T14:32:19;8.17;;;7.33;;
9763;SDS011;4921;43.214;27.936;2023-02-04T14:34:47;10.17;;;7.77;;
9763;SDS011;4921;43.214;27.936;2023-02-04T14:37:14;10.27;;;8.13;;
9763;SDS011;4921;43.214;27.936;2023-02-04T14:39:41;9.00;;;8.07;;
9763;SDS011;4921;43.214;27.936;2023-02-04T14:42:08;10.83;;;9.10;;
9763;SDS011;4921;43.214;27.936;2023-02-04T14:44:36;12.27;;;9.53;;
9763;SDS011;4921;43.214;27.936;2023-02-04T14:47:03;10.80;;;9.37;;
9763;SDS011;4921;43.214;27.936;2023-02-04T14:49:30;13.03;;;10.20;;
9763;SDS011;4921;43.214;27.936;2023-02-04T14:51:59;13.13;;;9.77;;
9763;SDS011;4921;43.214;27.936;2023-02-04T16:07:18;9.83;;;8.53;;
9763;SDS011;4921;43.214;27.936;2023-02-04T16:09:45;10.50;;;8.40;;
9763;SDS011;4921;43.214;27.936;2023-02-04T16:12:12;8.13;;;6.13;;
9763;SDS011;4921;43.214;27.936;2023-02-04T16:14:39;7.00;;;5.27;;
9763;SDS011;4921;43.214;27.936;2023-02-04T16:17:06;8.90;;;6.17;;
9763;SDS011;4921;43.214;27.936;2023-02-04T16:19:33;7.43;;;6.43;;